createdAt,value
2018-08-30T15:51:59.325Z,941.88
2018-08-30T16:10:45.933Z,942.03
2018-08-30T16:11:52.252Z,942.04
2018-08-30T16:55:14.707Z,941.95
2018-08-30T16:55:51.746Z,941.94
2018-08-30T16:56:51.993Z,941.94
2018-08-30T17:03:10.675Z,941.91
2018-08-30T17:04:11.057Z,941.94
2018-08-30T17:04:51.842Z,941.92
2018-08-30T17:05:52.136Z,941.91
2018-08-30T17:06:53.320Z,941.87
2018-08-30T17:07:53.607Z,941.87
2018-08-30T17:08:54.984Z,941.89
2018-08-30T17:09:54.154Z,941.83
2018-08-30T17:15:17.189Z,941.83
2018-08-30T17:15:30.963Z,941.83
2018-08-30T17:16:30.672Z,941.84
2018-08-30T17:16:46.976Z,941.84
2018-08-30T17:17:47.938Z,941.86
2018-08-30T17:18:48.470Z,941.9
2018-08-30T17:19:48.868Z,941.84
2018-08-30T17:20:50.122Z,941.87
2018-08-30T17:21:49.836Z,941.87
2018-08-30T17:22:50.239Z,941.88
2018-08-30T17:23:13.371Z,941.85
2018-08-30T17:24:02.650Z,941.86
2018-08-30T17:25:03.299Z,941.88
2018-08-30T17:25:36.053Z,941.86
2018-08-30T17:26:36.237Z,941.84
2018-08-30T17:27:36.568Z,941.88
2018-08-30T17:28:42.392Z,941.87
2018-08-30T17:29:32.407Z,941.86
2018-08-30T17:30:29.199Z,941.87
2018-08-30T17:31:04.017Z,941.85
2018-08-30T17:32:04.278Z,941.91
2018-08-30T17:32:40.420Z,941.85
2018-08-30T17:33:40.845Z,941.87
2018-08-30T17:34:41.927Z,941.87
2018-08-30T17:35:42.042Z,941.91
2018-08-30T17:36:42.649Z,941.91
2018-08-30T17:37:42.535Z,941.87
2018-08-30T17:38:43.432Z,941.92
2018-08-30T17:39:44.040Z,941.87
2018-08-30T17:48:03.604Z,941.86
2018-08-30T17:49:04.094Z,941.79
2018-08-30T17:50:04.217Z,941.86
2018-08-30T17:51:05.669Z,941.81
2018-08-30T17:52:05.567Z,941.79
2018-08-30T17:53:06.175Z,941.77
2018-08-30T17:54:06.510Z,941.75
2018-08-30T17:55:06.973Z,941.75
2018-08-30T17:56:07.294Z,941.72
2018-08-30T17:57:07.572Z,941.72
2018-08-30T17:58:07.904Z,941.7
2018-08-30T17:59:08.371Z,941.74
2018-08-30T18:05:49.333Z,941.81
2018-08-30T18:06:48.709Z,941.81
2018-08-30T18:07:49.261Z,941.84
2018-08-30T18:08:49.593Z,941.86
2018-08-30T18:09:50.534Z,941.82
2018-08-30T18:10:51.430Z,941.85
2018-08-30T18:11:52.119Z,941.86
2018-08-30T18:12:53.239Z,941.87
2018-08-30T18:13:53.572Z,941.86
2018-08-30T18:14:54.748Z,941.89
2018-08-30T18:15:55.367Z,941.92
2018-08-30T18:16:55.104Z,941.93
2018-08-30T18:17:56.383Z,941.92
2018-08-30T18:18:56.300Z,941.95
2018-08-30T18:19:57.198Z,941.97
2018-08-30T18:20:56.811Z,941.97
2018-08-30T18:21:57.421Z,942
2018-08-30T18:22:58.342Z,941.99
2018-08-30T18:23:58.674Z,941.97
2018-08-30T18:24:59.562Z,942.04
2018-08-30T18:26:00.456Z,941.97
2018-08-30T18:27:00.972Z,941.95
2018-08-30T18:28:01.583Z,941.95
2018-08-30T18:29:01.918Z,942
